createdAt,value
2016-06-27T00:00:22.597Z,0
2016-06-27T00:01:23.226Z,0
2016-06-27T00:02:37.518Z,0
2016-06-27T00:03:22.657Z,0
2016-06-27T00:04:21.469Z,0
2016-06-27T00:05:21.515Z,0
2016-06-27T00:06:22.757Z,0
2016-06-27T00:07:22.157Z,0
2016-06-27T00:08:22.174Z,0
2016-06-27T00:09:22.809Z,0
2016-06-27T00:10:22.838Z,0
2016-06-27T00:11:22.870Z,0
2016-06-27T00:12:22.269Z,0
2016-06-27T00:14:37.839Z,0
2016-06-27T00:15:23.565Z,0
2016-06-27T00:16:22.378Z,0
2016-06-27T00:17:22.998Z,0
2016-06-27T00:18:37.319Z,0
2016-06-27T00:19:37.329Z,0
2016-06-27T00:20:23.693Z,0
2016-06-27T00:21:23.106Z,0
2016-06-27T00:22:36.791Z,0
2016-06-27T00:23:21.946Z,0
2016-06-27T00:24:23.176Z,0
2016-06-27T00:25:23.810Z,0
2016-06-27T00:26:22.626Z,0
2016-06-27T00:27:23.266Z,0
2016-06-27T00:28:23.278Z,0
2016-06-27T00:29:22.078Z,0
2016-06-27T00:30:22.721Z,0
2016-06-27T00:31:23.975Z,0
2016-06-27T00:32:22.162Z,0
2016-06-27T00:33:38.287Z,0
2016-06-27T00:34:37.700Z,0
2016-06-27T00:35:22.843Z,0
2016-06-27T00:36:23.481Z,0
2016-06-27T00:37:22.888Z,0
2016-06-27T00:38:22.928Z,0
2016-06-27T00:39:23.573Z,0
2016-06-27T00:40:23.579Z,0
2016-06-27T00:41:23.011Z,0
2016-06-27T00:42:22.417Z,0
2016-06-27T00:43:23.665Z,0
2016-06-27T00:44:22.481Z,0
2016-06-27T00:45:24.311Z,0
2016-06-27T00:47:23.760Z,0
2016-06-27T00:48:22.556Z,0
2016-06-27T00:49:38.686Z,0
2016-06-27T00:50:38.103Z,0
2016-06-27T00:52:38.146Z,0
2016-06-27T00:53:38.179Z,0
2016-06-27T00:55:24.566Z,0
2016-06-27T00:57:23.423Z,0
2016-06-27T00:58:38.287Z,0
2016-06-27T00:59:23.443Z,0
2016-06-27T01:00:22.868Z,0
2016-06-27T01:01:38.379Z,0
2016-06-27T01:02:22.910Z,0
2016-06-27T01:03:38.425Z,0
2016-06-27T01:04:23.575Z,0
2016-06-27T01:05:24.807Z,0
2016-06-27T01:06:23.011Z,0
2016-06-27T01:07:23.062Z,0
2016-06-27T01:09:23.698Z,0
2016-06-27T01:10:24.345Z,0
2016-06-27T01:11:24.965Z,0
2016-06-27T01:12:24.998Z,0
2016-06-27T01:13:23.795Z,0
2016-06-27T01:16:38.751Z,0
2016-06-27T01:17:38.780Z,0
2016-06-27T01:18:24.514Z,0
2016-06-27T01:19:23.938Z,0
2016-06-27T01:20:23.974Z,0
2016-06-27T01:21:39.504Z,0
2016-06-27T01:22:24.011Z,0
2016-06-27T01:23:24.679Z,0
2016-06-27T01:24:24.673Z,0
2016-06-27T01:25:24.713Z,0
2016-06-27T01:26:23.523Z,0
2016-06-27T01:27:24.212Z,0
2016-06-27T01:28:24.152Z,0
2016-06-27T01:29:24.207Z,0
2016-06-27T01:30:24.823Z,0
2016-06-27T01:31:39.118Z,0
2016-06-27T01:32:24.267Z,0
2016-06-27T01:33:24.309Z,0
2016-06-27T01:34:25.534Z,0
2016-06-27T01:35:24.934Z,0
2016-06-27T01:37:39.269Z,0
2016-06-27T01:38:39.962Z,0
2016-06-27T01:39:25.665Z,0
2016-06-27T01:40:24.470Z,0
2016-06-27T01:41:25.111Z,0
2016-06-27T01:42:24.509Z,0
2016-06-27T01:43:25.143Z,0
2016-06-27T01:44:24.560Z,0
2016-06-27T01:45:24.611Z,0
2016-06-27T01:46:24.634Z,0
2016-06-27T01:47:25.853Z,0
2016-06-27T01:48:24.660Z,0
2016-06-27T01:49:25.949Z,0
2016-06-27T01:50:25.923Z,0
2016-06-27T01:53:39.061Z,0
2016-06-27T01:54:40.295Z,0
2016-06-27T01:55:25.442Z,4
2016-06-27T01:56:24.245Z,4
2016-06-27T01:57:24.272Z,4
2016-06-27T01:58:25.514Z,4
2016-06-27T01:59:24.329Z,4
2016-06-27T02:00:25.565Z,0
2016-06-27T02:01:39.862Z,4
2016-06-27T02:02:25.620Z,4
2016-06-27T02:03:39.910Z,4
2016-06-27T02:04:25.071Z,4
2016-06-27T02:05:26.313Z,4
2016-06-27T02:06:25.696Z,4
2016-06-27T02:07:26.355Z,8
2016-06-27T02:08:26.595Z,4
2016-06-27T02:09:40.666Z,8
2016-06-27T02:10:25.199Z,8
2016-06-27T02:11:25.838Z,8
2016-06-27T02:12:25.838Z,8
2016-06-27T02:13:25.882Z,12
2016-06-27T02:14:25.922Z,16
2016-06-27T02:15:25.938Z,16
2016-06-27T02:16:25.341Z,16
2016-06-27T02:17:25.370Z,24
2016-06-27T02:18:25.403Z,24
2016-06-27T02:19:25.416Z,28
2016-06-27T02:21:40.347Z,36
2016-06-27T02:22:24.879Z,36
2016-06-27T02:23:40.402Z,44
2016-06-27T02:24:41.026Z,48
2016-06-27T02:26:24.966Z,60
2016-06-27T02:27:25.617Z,64
2016-06-27T02:28:39.939Z,72
2016-06-27T02:29:25.694Z,80
2016-06-27T02:30:25.697Z,88
2016-06-27T02:31:26.343Z,92
2016-06-27T02:33:26.372Z,116
2016-06-27T02:34:25.794Z,120
2016-06-27T02:36:25.838Z,148
2016-06-27T02:37:26.456Z,156
2016-06-27T02:38:26.540Z,172
2016-06-27T02:39:26.514Z,184
2016-06-27T02:40:40.816Z,200
2016-06-27T02:41:25.358Z,208
2016-06-27T02:42:25.438Z,228
2016-06-27T02:43:26.019Z,240
2016-06-27T02:44:27.250Z,256
2016-06-27T02:45:26.054Z,272
2016-06-27T02:46:26.706Z,292
2016-06-27T02:47:41.592Z,312
2016-06-27T02:48:41.631Z,332
2016-06-27T02:49:27.374Z,352
2016-06-27T02:50:26.182Z,376
2016-06-27T02:51:26.207Z,400
2016-06-27T02:52:26.842Z,428
2016-06-27T02:53:26.253Z,464
2016-06-27T02:54:26.273Z,504
2016-06-27T02:55:26.312Z,536
2016-06-27T02:56:41.208Z,572
2016-06-27T02:57:26.986Z,600
2016-06-27T02:58:26.995Z,628
2016-06-27T02:59:26.407Z,656
2016-06-27T03:00:27.641Z,692
2016-06-27T03:01:27.071Z,720
2016-06-27T03:02:26.504Z,752
2016-06-27T03:03:27.138Z,788
2016-06-27T03:04:26.526Z,816
2016-06-27T03:05:26.555Z,844
2016-06-27T03:06:27.209Z,868
2016-06-27T03:07:27.238Z,896
2016-06-27T03:08:26.017Z,924
2016-06-27T03:09:26.648Z,964
2016-06-27T03:10:27.889Z,1004
2016-06-27T03:11:41.579Z,1056
2016-06-27T03:12:41.606Z,1100
2016-06-27T03:13:42.240Z,1144
2016-06-27T03:14:41.668Z,1192
2016-06-27T03:15:27.405Z,1228
2016-06-27T03:16:26.204Z,1272
2016-06-27T03:17:26.869Z,1320
2016-06-27T03:18:42.361Z,1384
2016-06-27T03:19:26.900Z,1428
2016-06-27T03:20:27.532Z,1476
2016-06-27T03:21:27.590Z,1516
2016-06-27T03:23:27.017Z,1576
2016-06-27T03:24:27.065Z,1612
2016-06-27T03:25:26.653Z,1684
2016-06-27T03:26:42.577Z,1796
2016-06-27T03:27:28.340Z,1864
2016-06-27T03:28:42.007Z,1948
2016-06-27T03:29:27.165Z,2004
2016-06-27T03:30:26.596Z,2072
2016-06-27T03:31:42.694Z,2168
2016-06-27T03:32:27.228Z,2224
2016-06-27T03:33:28.479Z,2308
2016-06-27T03:34:42.787Z,2416
2016-06-27T03:36:28.546Z,2560
2016-06-27T03:37:27.368Z,2652
2016-06-27T03:38:27.374Z,2748
2016-06-27T03:39:28.045Z,2840
2016-06-27T03:40:27.427Z,2900
2016-06-27T03:41:27.431Z,2996
2016-06-27T03:42:27.481Z,3072
2016-06-27T03:43:28.089Z,3244
2016-06-27T03:44:43.015Z,3288
2016-06-27T03:45:26.933Z,3324
2016-06-27T03:46:27.571Z,3300
2016-06-27T03:47:41.856Z,3028
2016-06-27T03:48:27.616Z,2980
2016-06-27T03:49:28.239Z,2820
2016-06-27T03:50:28.265Z,2676
2016-06-27T03:51:28.335Z,2684
2016-06-27T03:52:27.709Z,2836
2016-06-27T03:53:28.981Z,2948
2016-06-27T03:54:28.378Z,2936
2016-06-27T03:55:29.003Z,3056
2016-06-27T03:56:28.420Z,3392
2016-06-27T03:57:27.242Z,3804
2016-06-27T03:58:27.854Z,4292
2016-06-27T03:59:42.166Z,7256
2016-06-27T04:00:43.414Z,6264
2016-06-27T04:01:29.183Z,5620
2016-06-27T04:02:28.030Z,6620
2016-06-27T04:03:42.865Z,5908
2016-06-27T04:04:28.052Z,5452
2016-06-27T04:05:28.034Z,5180
2016-06-27T04:06:29.314Z,5084
2016-06-27T04:07:28.699Z,4988
2016-06-27T04:08:27.523Z,5076
2016-06-27T04:09:29.381Z,5488
2016-06-27T04:10:43.079Z,9704
2016-06-27T04:11:27.690Z,13084
2016-06-27T04:12:28.832Z,10312
2016-06-27T04:13:28.855Z,10384
2016-06-27T04:14:28.277Z,42240
2016-06-27T04:15:28.898Z,36192
2016-06-27T04:16:28.943Z,37120
2016-06-27T04:17:29.557Z,43136
2016-06-27T04:18:43.842Z,39872
2016-06-27T04:19:42.671Z,36160
2016-06-27T04:20:28.437Z,44832
2016-06-27T04:21:28.451Z,14004
2016-06-27T04:22:29.074Z,14204
2016-06-27T04:23:29.111Z,15552
2016-06-27T04:24:28.513Z,36960
2016-06-27T04:25:28.568Z,46528
2016-06-27T04:26:29.170Z,47680
2016-06-27T04:27:29.216Z,47520
2016-06-27T04:28:44.119Z,50176
2016-06-27T04:29:28.682Z,51840
2016-06-27T04:31:42.973Z,53152
2016-06-27T04:32:28.131Z,47168
2016-06-27T04:33:28.766Z,41984
2016-06-27T04:34:43.912Z,36160
2016-06-27T04:35:29.432Z,21760
2016-06-27T04:36:30.065Z,14504
2016-06-27T04:37:30.112Z,16128
2016-06-27T04:38:29.505Z,59648
2016-06-27T04:40:28.968Z,19168
2016-06-27T04:41:30.221Z,12516
2016-06-27T04:42:29.021Z,12528
2016-06-27T04:43:29.669Z,12064
2016-06-27T04:44:29.144Z,11664
2016-06-27T04:45:28.494Z,11212
2016-06-27T04:46:43.416Z,9872
2016-06-27T04:47:44.049Z,9192
2016-06-27T04:49:29.215Z,8248
2016-06-27T04:51:30.493Z,8876
2016-06-27T04:52:29.919Z,9160
2016-06-27T04:53:28.720Z,9464
2016-06-27T04:54:29.991Z,9940
2016-06-27T04:55:30.608Z,10624
2016-06-27T04:56:44.916Z,12904
2016-06-27T04:57:29.454Z,12812
2016-06-27T04:58:44.962Z,13628
2016-06-27T04:59:29.507Z,15324
2016-06-27T05:00:30.744Z,19232
2016-06-27T05:01:30.158Z,15480
2016-06-27T05:02:30.793Z,18304
2016-06-27T05:03:44.496Z,22304
2016-06-27T05:04:44.507Z,22112
2016-06-27T05:05:29.662Z,22336
2016-06-27T05:06:30.297Z,14832
2016-06-27T05:07:29.730Z,11644
2016-06-27T05:08:29.741Z,10600
2016-06-27T05:09:30.386Z,10184
2016-06-27T05:10:30.415Z,10328
2016-06-27T05:12:30.467Z,12396
2016-06-27T05:13:30.491Z,14432
2016-06-27T05:14:31.126Z,14400
2016-06-27T05:15:30.561Z,15744
2016-06-27T05:16:44.841Z,18048
2016-06-27T05:18:31.236Z,20064
2016-06-27T05:19:44.926Z,23104
2016-06-27T05:20:31.282Z,24128
2016-06-27T05:21:30.718Z,30656
2016-06-27T05:22:30.166Z,41088
2016-06-27T05:23:45.029Z,29632
2016-06-27T05:24:30.784Z,15872
2016-06-27T05:25:30.196Z,13380
2016-06-27T05:26:30.247Z,11288
2016-06-27T05:27:30.863Z,9944
2016-06-27T05:28:30.323Z,8960
2016-06-27T05:29:30.910Z,8016
2016-06-27T05:30:30.375Z,7176
2016-06-27T05:31:30.395Z,6416
2016-06-27T05:32:45.286Z,5676
2016-06-27T05:33:30.422Z,5404
2016-06-27T05:34:44.720Z,5060
2016-06-27T05:35:30.482Z,4864
2016-06-27T05:36:30.502Z,4860
2016-06-27T05:37:30.539Z,5036
2016-06-27T05:38:30.554Z,5380
2016-06-27T05:39:31.197Z,5972
2016-06-27T05:40:31.857Z,6792
2016-06-27T05:41:45.507Z,7960
2016-06-27T05:42:30.057Z,8644
2016-06-27T05:44:31.342Z,10136
2016-06-27T05:45:31.957Z,10492
2016-06-27T05:46:31.379Z,10492
2016-06-27T05:47:30.808Z,10760
2016-06-27T05:48:30.831Z,11184
2016-06-27T05:49:30.835Z,11648
2016-06-27T05:50:31.490Z,13036
2016-06-27T05:51:30.915Z,10996
2016-06-27T05:53:46.446Z,9592
2016-06-27T05:54:30.995Z,10308
2016-06-27T05:55:31.015Z,9688
2016-06-27T05:56:31.657Z,9140
2016-06-27T05:57:31.681Z,8968
2016-06-27T05:58:31.086Z,8964
2016-06-27T05:59:32.333Z,9112
2016-06-27T06:01:31.171Z,8452
2016-06-27T06:02:30.595Z,7848
2016-06-27T06:03:30.605Z,7272
2016-06-27T06:04:30.656Z,6908
2016-06-27T06:05:31.901Z,6676
2016-06-27T06:06:46.189Z,6560
2016-06-27T06:07:46.206Z,6536
2016-06-27T06:08:32.581Z,6560
2016-06-27T06:09:45.647Z,6560
2016-06-27T06:10:32.022Z,6624
2016-06-27T06:11:31.425Z,6720
2016-06-27T06:12:31.462Z,6880
2016-06-27T06:13:31.489Z,7032
2016-06-27T06:14:32.748Z,7108
2016-06-27T06:15:32.767Z,7184
2016-06-27T06:16:32.186Z,7288
2016-06-27T06:17:31.602Z,7328
2016-06-27T06:18:31.617Z,7504
2016-06-27T06:19:31.037Z,7740
2016-06-27T06:20:31.675Z,7892
2016-06-27T06:21:46.588Z,7992
2016-06-27T06:22:46.600Z,8080
2016-06-27T06:23:32.374Z,8196
2016-06-27T06:24:46.663Z,8444
2016-06-27T06:25:33.041Z,8684
2016-06-27T06:26:32.440Z,9012
2016-06-27T06:27:31.874Z,9348
2016-06-27T06:28:32.505Z,9740
2016-06-27T06:29:32.518Z,10252
2016-06-27T06:30:46.809Z,10816
2016-06-27T06:31:31.964Z,10772
2016-06-27T06:32:31.979Z,10896
2016-06-27T06:33:32.043Z,11112
2016-06-27T06:34:46.946Z,11400
2016-06-27T06:35:32.687Z,11196
2016-06-27T06:36:32.109Z,11008
2016-06-27T06:37:32.164Z,10872
2016-06-27T06:38:47.031Z,10888
2016-06-27T06:40:31.591Z,11164
2016-06-27T06:41:33.461Z,10716
2016-06-27T06:42:33.002Z,10796
2016-06-27T06:43:32.291Z,10888
2016-06-27T06:44:32.324Z,10984
2016-06-27T06:45:34.608Z,11136
2016-06-27T06:46:47.865Z,11204
2016-06-27T06:47:47.270Z,10384
2016-06-27T06:48:32.421Z,9896
2016-06-27T06:49:33.058Z,9488
2016-06-27T06:50:33.080Z,9396
2016-06-27T06:51:46.781Z,9228
2016-06-27T06:52:33.143Z,9068
2016-06-27T06:54:46.850Z,9368
2016-06-27T06:55:32.647Z,9528
2016-06-27T06:56:47.519Z,9668
2016-06-27T06:57:32.658Z,9832
2016-06-27T06:58:33.321Z,9640
2016-06-27T06:59:32.724Z,10064
2016-06-27T07:00:33.961Z,10672
2016-06-27T07:01:32.774Z,12284
2016-06-27T07:02:32.196Z,11252
2016-06-27T07:03:33.441Z,11228
2016-06-27T07:04:34.088Z,11416
2016-06-27T07:05:32.887Z,11344
2016-06-27T07:06:47.791Z,11124
2016-06-27T07:07:32.960Z,11068
2016-06-27T07:08:47.231Z,10840
2016-06-27T07:09:47.260Z,10984
2016-06-27T07:10:33.634Z,11184
2016-06-27T07:11:34.276Z,11680
2016-06-27T07:12:33.678Z,12436
2016-06-27T07:13:32.481Z,14024
2016-06-27T07:14:32.554Z,15364
2016-06-27T07:15:33.167Z,15596
2016-06-27T07:16:33.808Z,12888
2016-06-27T07:17:33.868Z,12624
2016-06-27T07:18:34.455Z,12408
2016-06-27T07:19:34.477Z,12380
2016-06-27T07:20:48.776Z,13044
2016-06-27T07:21:48.199Z,12408
2016-06-27T07:22:48.228Z,13056
2016-06-27T07:23:34.604Z,13204
2016-06-27T07:24:33.404Z,14580
2016-06-27T07:25:34.043Z,18112
2016-06-27T07:26:33.457Z,20960
2016-06-27T07:27:34.089Z,19744
2016-06-27T07:28:34.131Z,19424
2016-06-27T07:29:33.558Z,20800
2016-06-27T07:31:33.628Z,20288
2016-06-27T07:32:34.229Z,22080
2016-06-27T07:33:34.251Z,20928
2016-06-27T07:34:34.293Z,29568
2016-06-27T07:35:33.702Z,32448
2016-06-27T07:36:34.964Z,35296
2016-06-27T07:37:34.398Z,35136
2016-06-27T07:38:33.198Z,37024
2016-06-27T07:39:48.695Z,37248
2016-06-27T07:40:49.332Z,20992
2016-06-27T07:41:49.367Z,48192
2016-06-27T07:42:48.790Z,44608
2016-06-27T07:43:35.145Z,50656
2016-06-27T07:44:34.577Z,32608
2016-06-27T07:45:34.670Z,24128
2016-06-27T07:46:34.639Z,46464
2016-06-27T07:47:34.660Z,46688
2016-06-27T07:48:34.077Z,44256
2016-06-27T07:49:34.138Z,44256
2016-06-27T07:50:33.546Z,52576
2016-06-27T07:51:34.163Z,56128
2016-06-27T07:52:34.196Z,47936
2016-06-27T07:53:34.287Z,51520
2016-06-27T07:54:34.272Z,54784
2016-06-27T07:55:34.910Z,57760
2016-06-27T07:56:34.930Z,59648
2016-06-27T07:57:49.843Z,57248
2016-06-27T07:58:35.599Z,52032
2016-06-27T07:59:35.016Z,52736
2016-06-27T08:00:33.821Z,53184
2016-06-27T08:01:35.210Z,56224
2016-06-27T08:02:35.129Z,56064
2016-06-27T08:03:35.757Z,54944
2016-06-27T08:04:35.783Z,53024
2016-06-27T08:05:35.841Z,43968
2016-06-27T08:06:35.254Z,32224
2016-06-27T08:07:35.890Z,27360
2016-06-27T08:08:34.092Z,25056
2016-06-27T08:09:35.348Z,20064
2016-06-27T08:10:35.366Z,18144
2016-06-27T08:11:49.671Z,26496
2016-06-27T08:12:35.422Z,25376
2016-06-27T08:13:49.125Z,25632
2016-06-27T08:14:49.758Z,24320
2016-06-27T08:15:49.809Z,24320
2016-06-27T08:16:49.214Z,30976
2016-06-27T08:17:36.200Z,29088
2016-06-27T08:18:34.418Z,24128
2016-06-27T08:19:35.892Z,23936
2016-06-27T08:20:35.673Z,29120
2016-06-27T08:21:36.308Z,23360
2016-06-27T08:22:36.382Z,24032
2016-06-27T08:23:36.416Z,25280
2016-06-27T08:24:36.410Z,24672
2016-06-27T08:25:35.846Z,26208
2016-06-27T08:26:35.277Z,26976
2016-06-27T08:28:35.944Z,21504
2016-06-27T08:29:50.267Z,21312
2016-06-27T08:30:50.900Z,20832
2016-06-27T08:31:36.671Z,23744
2016-06-27T08:32:34.856Z,24608
2016-06-27T08:33:35.501Z,23808
2016-06-27T08:34:34.911Z,23360
2016-06-27T08:36:36.213Z,21664
2016-06-27T08:37:35.640Z,21952
2016-06-27T08:38:35.686Z,22112
2016-06-27T08:39:35.698Z,20960
2016-06-27T08:40:36.926Z,14760
2016-06-27T08:41:35.759Z,16596
2016-06-27T08:42:35.785Z,17920
2016-06-27T08:43:35.843Z,14456
2016-06-27T08:44:50.725Z,15384
2016-06-27T08:45:35.904Z,18464
2016-06-27T08:47:35.346Z,19104
2016-06-27T08:48:36.587Z,18336
2016-06-27T08:49:35.427Z,22656
2016-06-27T08:50:37.254Z,24224
2016-06-27T08:51:36.757Z,16064
2016-06-27T08:52:36.105Z,17024
2016-06-27T08:53:36.160Z,24160
2016-06-27T08:54:35.552Z,17984
2016-06-27T08:55:36.889Z,19392
2016-06-27T08:57:36.263Z,25824
2016-06-27T08:58:37.545Z,25088
2016-06-27T08:59:36.932Z,23232
2016-06-27T09:00:36.402Z,23584
2016-06-27T09:01:37.650Z,24448
2016-06-27T09:02:37.668Z,23232
2016-06-27T09:03:37.067Z,21696
2016-06-27T09:04:51.371Z,20896
2016-06-27T09:05:36.564Z,19296
2016-06-27T09:06:37.175Z,16292
2016-06-27T09:07:37.198Z,17504
2016-06-27T09:08:51.496Z,21760
2016-06-27T09:09:37.268Z,20416
2016-06-27T09:10:51.587Z,20640
2016-06-27T09:11:37.342Z,24448
2016-06-27T09:12:36.757Z,26336
2016-06-27T09:13:36.182Z,21408
2016-06-27T09:14:36.823Z,20128
2016-06-27T09:15:36.865Z,19616
2016-06-27T09:16:52.387Z,18656
2016-06-27T09:17:36.951Z,18400
2016-06-27T09:18:51.844Z,18976
2016-06-27T09:19:38.233Z,17664
2016-06-27T09:20:37.013Z,19776
2016-06-27T09:21:37.652Z,21120
2016-06-27T09:22:37.117Z,22624
2016-06-27T09:23:37.730Z,21088
2016-06-27T09:24:37.766Z,24224
2016-06-27T09:25:38.396Z,17440
2016-06-27T09:27:52.126Z,15744
2016-06-27T09:28:38.507Z,15568
2016-06-27T09:30:36.736Z,18240
2016-06-27T09:31:37.408Z,14780
2016-06-27T09:32:51.683Z,15932
2016-06-27T09:33:38.054Z,15320
2016-06-27T09:34:37.470Z,15176
2016-06-27T09:35:38.726Z,15704
2016-06-27T09:36:38.778Z,15128
2016-06-27T09:37:38.807Z,14588
2016-06-27T09:38:38.245Z,15428
2016-06-27T09:39:37.628Z,14884
2016-06-27T09:40:38.278Z,17664
2016-06-27T09:41:37.693Z,17344
2016-06-27T09:42:37.742Z,18816
2016-06-27T09:43:38.364Z,19328
2016-06-27T09:44:38.410Z,23584
2016-06-27T09:45:38.432Z,18688
2016-06-27T09:46:38.451Z,18848
2016-06-27T09:47:38.488Z,21056
2016-06-27T09:48:53.409Z,21984
2016-06-27T09:49:38.571Z,19168
2016-06-27T09:50:37.363Z,20992
2016-06-27T09:51:38.028Z,21184
2016-06-27T09:53:38.675Z,20064
2016-06-27T09:55:39.364Z,18592
2016-06-27T09:56:38.786Z,17760
2016-06-27T09:57:38.831Z,17248
2016-06-27T09:58:39.451Z,8696
2016-06-27T09:59:38.924Z,8828
2016-06-27T10:00:38.906Z,16452
2016-06-27T10:01:38.320Z,9576
2016-06-27T10:02:38.983Z,9864
2016-06-27T10:03:38.999Z,8848
2016-06-27T10:04:53.317Z,14192
2016-06-27T10:05:39.686Z,15640
2016-06-27T10:07:39.748Z,15856
2016-06-27T10:09:38.567Z,11028
2016-06-27T10:10:39.226Z,14988
2016-06-27T10:11:39.257Z,15056
2016-06-27T10:13:38.706Z,7136
2016-06-27T10:14:39.326Z,14432
2016-06-27T10:15:39.398Z,14816
2016-06-27T10:16:38.836Z,7504
2016-06-27T10:17:38.864Z,7228
2016-06-27T10:18:39.483Z,7136
2016-06-27T10:19:53.803Z,15008
2016-06-27T10:20:38.939Z,14908
2016-06-27T10:23:38.414Z,14148
2016-06-27T10:24:39.051Z,13976
2016-06-27T10:25:39.080Z,13828
2016-06-27T10:26:40.334Z,13604
2016-06-27T10:27:39.174Z,6720
2016-06-27T10:28:39.776Z,7672
2016-06-27T10:29:39.809Z,11276
2016-06-27T10:30:39.849Z,8964
2016-06-27T10:31:39.268Z,9948
2016-06-27T10:32:39.912Z,14488
2016-06-27T10:33:39.368Z,10156
2016-06-27T10:34:40.594Z,8816
2016-06-27T10:35:39.405Z,8504
2016-06-27T10:36:40.045Z,7828
2016-06-27T10:37:40.681Z,8476
2016-06-27T10:38:39.495Z,10468
2016-06-27T10:39:40.149Z,11316
2016-06-27T10:40:40.194Z,15592
2016-06-27T10:41:39.603Z,14228
2016-06-27T10:42:40.827Z,9912
2016-06-27T10:43:54.534Z,9560
2016-06-27T10:44:39.064Z,8980
2016-06-27T10:45:39.694Z,8780
2016-06-27T10:47:40.389Z,8836
2016-06-27T10:48:39.186Z,9020
2016-06-27T10:49:54.745Z,14960
2016-06-27T10:50:41.220Z,8532
2016-06-27T10:52:54.799Z,13452
2016-06-27T10:53:40.582Z,13632
2016-06-27T10:54:55.476Z,11968
2016-06-27T10:55:40.645Z,12888
2016-06-27T10:56:55.518Z,12664
2016-06-27T10:57:40.679Z,7908
2016-06-27T10:58:40.094Z,13232
2016-06-27T10:59:40.123Z,10324
2016-06-27T11:00:41.370Z,13228
2016-06-27T11:01:41.412Z,11892
2016-06-27T11:02:40.811Z,12892
2016-06-27T11:03:40.851Z,12868
2016-06-27T11:04:40.934Z,7256
2016-06-27T11:05:40.315Z,13048
2016-06-27T11:06:40.327Z,7888
2016-06-27T11:07:55.253Z,7732
2016-06-27T11:08:41.025Z,7992
2016-06-27T11:09:40.426Z,8708
2016-06-27T11:10:40.459Z,14604
2016-06-27T11:11:40.484Z,9384
2016-06-27T11:12:41.131Z,9416
2016-06-27T11:13:39.957Z,9936
2016-06-27T11:14:40.608Z,15100
2016-06-27T11:15:41.218Z,15024
2016-06-27T11:16:40.651Z,14876
2016-06-27T11:18:40.691Z,10928
2016-06-27T11:19:41.949Z,10792
2016-06-27T11:20:40.779Z,13992
2016-06-27T11:21:55.096Z,9016
2016-06-27T11:22:40.214Z,8520
2016-06-27T11:23:56.336Z,8308
2016-06-27T11:24:40.874Z,8048
2016-06-27T11:25:41.518Z,7572
2016-06-27T11:26:42.181Z,7360
2016-06-27T11:27:41.610Z,7152
2016-06-27T11:28:41.009Z,6944
2016-06-27T11:29:55.308Z,6568
2016-06-27T11:30:41.701Z,6412
2016-06-27T11:31:41.727Z,6156
2016-06-27T11:32:41.765Z,6028
2016-06-27T11:33:55.430Z,6120
2016-06-27T11:34:42.394Z,6196
2016-06-27T11:35:41.822Z,6352
2016-06-27T11:36:56.722Z,6788
2016-06-27T11:37:41.266Z,8768
2016-06-27T11:38:42.509Z,7332
2016-06-27T11:39:56.190Z,7748
2016-06-27T11:40:41.380Z,8068
2016-06-27T11:41:42.014Z,8972
2016-06-27T11:42:42.654Z,11412
2016-06-27T11:43:41.448Z,8880
2016-06-27T11:44:42.099Z,8384
2016-06-27T11:45:41.523Z,7768
2016-06-27T11:46:57.028Z,7424
2016-06-27T11:47:42.178Z,7612
2016-06-27T11:49:42.232Z,10644
2016-06-27T11:50:41.641Z,10680
2016-06-27T11:51:42.273Z,10920
2016-06-27T11:52:56.588Z,11024
2016-06-27T11:53:42.982Z,10984
2016-06-27T11:54:56.045Z,10976
2016-06-27T11:55:41.801Z,10764
2016-06-27T11:56:42.426Z,8116
2016-06-27T11:57:42.479Z,7768
2016-06-27T11:58:41.894Z,9348
2016-06-27T12:00:43.173Z,9216
2016-06-27T12:01:42.022Z,7376
2016-06-27T12:02:42.620Z,7144
2016-06-27T12:03:41.443Z,7352
2016-06-27T12:04:42.058Z,6760
2016-06-27T12:05:42.705Z,6532
2016-06-27T12:06:57.007Z,6780
2016-06-27T12:07:41.541Z,6884
2016-06-27T12:08:42.835Z,7584
2016-06-27T12:09:42.818Z,6768
2016-06-27T12:10:42.243Z,6680
2016-06-27T12:11:42.886Z,6860
2016-06-27T12:12:41.696Z,7028
2016-06-27T12:13:43.582Z,7292
2016-06-27T12:14:43.585Z,7556
2016-06-27T12:15:43.604Z,7960
2016-06-27T12:16:42.450Z,10680
2016-06-27T12:17:57.945Z,8716
2016-06-27T12:18:57.969Z,8712
2016-06-27T12:19:57.389Z,8932
2016-06-27T12:20:43.754Z,9264
2016-06-27T12:21:57.442Z,9312
2016-06-27T12:22:42.573Z,9272
2016-06-27T12:24:42.038Z,9076
2016-06-27T12:25:42.699Z,8952
2016-06-27T12:27:12.068Z,8704
2016-06-27T12:27:43.956Z,9044
2016-06-27T12:28:43.613Z,8752
2016-06-27T12:29:42.808Z,8872
2016-06-27T12:30:42.870Z,9040
2016-06-27T12:33:42.931Z,9644
2016-06-27T12:34:42.332Z,10100
2016-06-27T12:35:42.982Z,12704
2016-06-27T12:36:43.226Z,12888
2016-06-27T12:37:43.041Z,12880
2016-06-27T12:39:43.714Z,10160
2016-06-27T12:40:43.742Z,10180
2016-06-27T12:41:43.779Z,10340
2016-06-27T12:42:58.089Z,11600
2016-06-27T12:43:57.465Z,9976
2016-06-27T12:44:58.125Z,9476
2016-06-27T12:45:43.286Z,9252
2016-06-27T12:46:44.513Z,9240
2016-06-27T12:47:44.574Z,9704
2016-06-27T12:48:44.027Z,8860
2016-06-27T12:49:43.438Z,9668
2016-06-27T12:50:44.054Z,11348
2016-06-27T12:51:44.044Z,10256
2016-06-27T12:53:44.422Z,8604
2016-06-27T12:54:44.758Z,8828
2016-06-27T12:55:43.551Z,10540
2016-06-27T12:57:44.855Z,13772
2016-06-27T12:58:59.145Z,12932
2016-06-27T12:59:58.553Z,13664
2016-06-27T13:00:43.718Z,12984
2016-06-27T13:01:44.350Z,12740
2016-06-27T13:03:44.409Z,10176
2016-06-27T13:04:44.433Z,9056
2016-06-27T13:05:43.862Z,8668
2016-06-27T13:06:45.127Z,10504
2016-06-27T13:07:45.142Z,7940
2016-06-27T13:08:45.157Z,7532
2016-06-27T13:09:43.972Z,7092
2016-06-27T13:10:44.627Z,6784
2016-06-27T13:11:44.039Z,6588
2016-06-27T13:12:44.698Z,6748
2016-06-27T13:13:45.346Z,8352
2016-06-27T13:14:58.999Z,10256
2016-06-27T13:15:44.168Z,10096
2016-06-27T13:16:43.576Z,9984
2016-06-27T13:17:44.215Z,10672
2016-06-27T13:18:44.293Z,10252
2016-06-27T13:19:44.295Z,10264
2016-06-27T13:20:44.918Z,7656
2016-06-27T13:21:44.942Z,7824
2016-06-27T13:22:44.366Z,7780
2016-06-27T13:23:44.409Z,7512
2016-06-27T13:24:45.026Z,7248
2016-06-27T13:25:45.088Z,8120
2016-06-27T13:27:44.514Z,10828
2016-06-27T13:28:45.759Z,10580
2016-06-27T13:29:59.451Z,10956
2016-06-27T13:30:45.823Z,6840
2016-06-27T13:31:44.021Z,9880
2016-06-27T13:32:59.532Z,5976
2016-06-27T13:33:45.301Z,7016
2016-06-27T13:34:44.714Z,9176
2016-06-27T13:35:44.745Z,7632
2016-06-27T13:36:45.385Z,9308
2016-06-27T13:37:44.815Z,9016
2016-06-27T13:38:46.059Z,9692
2016-06-27T13:39:45.482Z,8900
2016-06-27T13:40:59.777Z,9456
2016-06-27T13:41:44.307Z,5160
2016-06-27T13:42:44.962Z,5636
2016-06-27T13:43:46.217Z,5080
2016-06-27T13:44:45.023Z,6968
2016-06-27T13:45:45.063Z,8136
2016-06-27T13:46:45.702Z,7108
2016-06-27T13:48:00.601Z,7812
2016-06-27T13:49:00.078Z,7152
2016-06-27T13:49:46.404Z,7060
2016-06-27T13:50:44.591Z,6964
2016-06-27T13:51:45.855Z,7144
2016-06-27T13:52:46.477Z,6452
2016-06-27T13:53:45.315Z,7312
2016-06-27T13:54:45.921Z,6716
2016-06-27T13:55:45.340Z,6956
2016-06-27T13:56:45.399Z,6784
2016-06-27T13:57:46.012Z,7080
2016-06-27T13:59:00.913Z,7892
2016-06-27T13:59:46.679Z,7796
2016-06-27T14:00:45.536Z,7360
2016-06-27T14:02:00.383Z,7024
2016-06-27T14:02:45.546Z,6900
2016-06-27T14:03:45.582Z,7284
2016-06-27T14:04:46.216Z,7508
2016-06-27T14:05:46.888Z,7780
2016-06-27T14:06:46.279Z,8156
2016-06-27T14:07:46.310Z,8280
2016-06-27T14:08:46.339Z,6360
2016-06-27T14:09:45.773Z,8208
2016-06-27T14:11:46.405Z,5900
2016-06-27T14:12:45.851Z,8304
2016-06-27T14:13:46.487Z,6172
2016-06-27T14:15:45.933Z,8388
2016-06-27T14:16:47.177Z,8252
2016-06-27T14:18:01.462Z,8028
2016-06-27T14:18:46.007Z,8120